Time;durP1;ratioP1;P1;durP2;ratioP2;P2;SDS_P1;SDS_P2;PMS_P1;PMS_P2;Temp;Humidity;BMP_temperature;BMP_pressure;BME280_temperature;BME280_humidity;BME280_pressure;Samples;Min_cycle;Max_cycle;Signal;HPM_P1;HPM_P2
2022/06/28 00:00:39;;;;;;;6.80;1.58;;;;;;;;;;4925050;29;20504;-60
2022/06/28 00:03:06;;;;;;;6.70;1.40;;;;;;;;;;4921667;29;20468;-60
2022/06/28 00:05:33;;;;;;;7.40;1.70;;;;;;;;;;4920235;29;20031;-60
2022/06/28 00:07:59;;;;;;;4.00;1.55;;;;;;;;;;4925089;29;20091;-61
2022/06/28 00:10:26;;;;;;;6.40;1.60;;;;;;;;;;4924430;29;20043;-60
2022/06/28 00:12:52;;;;;;;2.60;1.40;;;;;;;;;;4924165;29;20047;-60
2022/06/28 00:18:04;;;;;;;4.22;1.50;;;;;;;;;;4919009;29;20070;-60
2022/06/28 00:20:30;;;;;;;6.30;1.60;;;;;;;;;;4932237;29;20031;-60
2022/06/28 00:22:56;;;;;;;3.58;1.30;;;;;;;;;;4924285;29;20032;-60
2022/06/28 00:25:23;;;;;;;5.28;1.30;;;;;;;;;;4924918;29;20031;-61
2022/06/28 00:27:49;;;;;;;6.07;1.30;;;;;;;;;;4924287;29;20412;-60
2022/06/28 00:30:15;;;;;;;5.78;1.40;;;;;;;;;;4920361;29;20040;-60
2022/06/28 00:32:41;;;;;;;6.97;1.55;;;;;;;;;;4933327;29;20035;-60
2022/06/28 00:35:08;;;;;;;3.45;1.38;;;;;;;;;;4922610;29;20378;-60
2022/06/28 00:37:35;;;;;;;5.13;1.27;;;;;;;;;;4924441;29;20046;-61
2022/06/28 00:40:01;;;;;;;3.33;1.50;;;;;;;;;;4924095;29;20031;-61
2022/06/28 00:42:27;;;;;;;4.95;1.60;;;;;;;;;;4923526;29;20020;-60
2022/06/28 00:44:54;;;;;;;5.80;1.48;;;;;;;;;;4919263;29;20028;-60
2022/06/28 00:47:20;;;;;;;3.80;1.58;;;;;;;;;;4921408;29;20405;-61
2022/06/28 00:49:47;;;;;;;5.22;1.50;;;;;;;;;;4923866;29;20044;-60
2022/06/28 00:52:13;;;;;;;6.18;1.27;;;;;;;;;;4924552;29;20031;-61
2022/06/28 00:54:40;;;;;;;4.20;1.30;;;;;;;;;;4923977;29;20495;-61
2022/06/28 00:57:07;;;;;;;5.32;1.30;;;;;;;;;;4921055;29;20031;-60
2022/06/28 00:59:33;;;;;;;6.50;1.33;;;;;;;;;;4919484;29;20032;-60
2022/06/28 01:02:00;;;;;;;8.50;1.42;;;;;;;;;;4923571;29;20047;-61
2022/06/28 01:04:26;;;;;;;4.72;1.67;;;;;;;;;;4923839;29;20028;-61
2022/06/28 01:06:53;;;;;;;6.45;1.70;;;;;;;;;;4923704;29;20036;-60
2022/06/28 01:09:20;;;;;;;4.93;1.30;;;;;;;;;;4919039;29;20036;-60
2022/06/28 01:11:46;;;;;;;4.25;1.67;;;;;;;;;;4932925;29;20028;-61
2022/06/28 01:14:13;;;;;;;4.40;1.75;;;;;;;;;;4933320;29;20503;-60
2022/06/28 01:16:40;;;;;;;5.22;1.58;;;;;;;;;;4929877;29;20055;-60
2022/06/28 01:19:07;;;;;;;7.05;1.63;;;;;;;;;;4929636;29;20426;-60
2022/06/28 01:21:34;;;;;;;9.27;2.05;;;;;;;;;;4923359;29;20034;-61
2022/06/28 01:24:01;;;;;;;8.20;1.70;;;;;;;;;;4917570;29;20078;-61
2022/06/28 01:26:29;;;;;;;6.35;1.48;;;;;;;;;;4919904;29;20083;-60
2022/06/28 01:28:55;;;;;;;5.18;1.45;;;;;;;;;;4923179;29;20036;-60
2022/06/28 01:31:22;;;;;;;4.22;1.60;;;;;;;;;;4923098;29;20035;-61
2022/06/28 01:33:48;;;;;;;6.72;1.02;;;;;;;;;;4923209;29;20495;-61
2022/06/28 01:36:15;;;;;;;3.40;1.35;;;;;;;;;;4920934;29;20032;-61
2022/06/28 01:38:42;;;;;;;9.32;1.65;;;;;;;;;;4918481;29;20034;-60
2022/06/28 01:41:08;;;;;;;3.67;1.23;;;;;;;;;;4922087;29;20036;-61
2022/06/28 01:43:36;;;;;;;6.95;1.73;;;;;;;;;;4923084;29;20497;-60
2022/06/28 01:46:06;;;;;;;3.63;1.45;;;;;;;;;;4923065;29;20382;-60
2022/06/28 01:48:33;;;;;;;4.03;1.30;;;;;;;;;;4918827;29;20020;-61
2022/06/28 01:51:00;;;;;;;4.55;1.27;;;;;;;;;;4933952;29;20081;-60
2022/06/28 01:53:26;;;;;;;4.28;1.65;;;;;;;;;;4930029;29;20054;-61
2022/06/28 01:55:53;;;;;;;2.08;1.30;;;;;;;;;;4924857;29;20109;-61
2022/06/28 01:58:19;;;;;;;4.03;1.50;;;;;;;;;;4926955;29;20523;-60
2022/06/28 02:00:45;;;;;;;4.22;1.50;;;;;;;;;;4927005;29;20016;-60
2022/06/28 02:03:12;;;;;;;5.85;1.48;;;;;;;;;;4924184;29;20019;-61
2022/06/28 02:05:38;;;;;;;6.88;2.20;;;;;;;;;;4922332;29;20036;-60
2022/06/28 02:08:05;;;;;;;7.25;2.05;;;;;;;;;;4925454;29;20028;-61
2022/06/28 02:10:31;;;;;;;5.70;2.00;;;;;;;;;;4926636;29;20043;-60
2022/06/28 02:12:58;;;;;;;4.32;1.70;;;;;;;;;;4926580;29;20016;-60
2022/06/28 02:15:24;;;;;;;5.95;2.03;;;;;;;;;;4925323;29;20500;-60
2022/06/28 02:17:50;;;;;;;6.78;1.92;;;;;;;;;;4921847;29;20052;-60
2022/06/28 02:20:17;;;;;;;4.38;1.60;;;;;;;;;;4924045;29;20032;-60
2022/06/28 02:22:43;;;;;;;2.75;1.42;;;;;;;;;;4926118;29;20107;-60
2022/06/28 02:25:09;;;;;;;6.80;1.65;;;;;;;;;;4926352;29;20028;-60
2022/06/28 02:27:36;;;;;;;5.53;1.77;;;;;;;;;;4922542;29;20032;-60
2022/06/28 02:30:02;;;;;;;4.60;1.48;;;;;;;;;;4937004;29;20027;-60
2022/06/28 02:32:28;;;;;;;4.25;1.40;;;;;;;;;;4922425;29;20032;-60
2022/06/28 02:40:25;;;;;;;5.97;1.58;;;;;;;;;;4926098;29;20039;-60
2022/06/28 02:42:52;;;;;;;5.47;1.30;;;;;;;;;;4926121;29;20472;-60
2022/06/28 02:45:19;;;;;;;3.42;1.38;;;;;;;;;;4924268;29;20028;-60
2022/06/28 02:47:46;;;;;;;4.30;1.40;;;;;;;;;;4921231;29;20042;-61
2022/06/28 02:50:12;;;;;;;4.30;1.80;;;;;;;;;;4924080;29;20113;-61
2022/06/28 02:52:40;;;;;;;7.28;1.50;;;;;;;;;;4925601;29;20033;-61
2022/06/28 02:55:06;;;;;;;4.30;1.27;;;;;;;;;;4925607;29;20485;-61
2022/06/28 02:57:33;;;;;;;4.38;1.50;;;;;;;;;;4925907;29;20026;-61
2022/06/28 02:59:59;;;;;;;6.40;1.58;;;;;;;;;;4921565;29;20484;-60
2022/06/28 03:02:26;;;;;;;7.68;1.80;;;;;;;;;;4932907;29;20046;-60
2022/06/28 03:04:52;;;;;;;7.00;1.75;;;;;;;;;;4925778;29;20036;-60
2022/06/28 03:07:18;;;;;;;3.88;1.58;;;;;;;;;;4926420;29;20028;-60
2022/06/28 03:09:45;;;;;;;9.40;1.60;;;;;;;;;;4934665;29;20157;-60
2022/06/28 03:12:11;;;;;;;3.22;1.60;;;;;;;;;;4922911;29;20027;-60
2022/06/28 03:14:38;;;;;;;5.18;1.70;;;;;;;;;;4920962;29;20032;-60
2022/06/28 03:17:04;;;;;;;3.33;1.50;;;;;;;;;;4924578;29;20044;-60
2022/06/28 03:19:31;;;;;;;3.83;1.67;;;;;;;;;;4925337;29;20501;-60
2022/06/28 03:21:57;;;;;;;3.65;1.92;;;;;;;;;;4925099;29;20031;-61
2022/06/28 03:24:23;;;;;;;6.40;1.80;;;;;;;;;;4924187;29;20392;-60
2022/06/28 03:26:50;;;;;;;4.63;1.70;;;;;;;;;;4920757;29;20040;-61
2022/06/28 03:29:16;;;;;;;10.35;2.15;;;;;;;;;;4922963;29;20489;-60
2022/06/28 03:31:42;;;;;;;6.13;2.10;;;;;;;;;;4925459;29;20028;-60
2022/06/28 03:34:09;;;;;;;6.72;2.20;;;;;;;;;;4925102;29;20030;-60
2022/06/28 03:36:35;;;;;;;5.03;1.80;;;;;;;;;;4924847;29;20492;-60
2022/06/28 03:39:01;;;;;;;6.43;1.92;;;;;;;;;;4921125;29;20050;-60
2022/06/28 03:41:28;;;;;;;3.92;1.65;;;;;;;;;;4921315;29;20092;-61
2022/06/28 03:43:54;;;;;;;2.25;1.38;;;;;;;;;;4924972;29;20523;-60
2022/06/28 03:46:21;;;;;;;13.25;2.15;;;;;;;;;;4926952;29;20547;-60
2022/06/28 03:48:48;;;;;;;4.05;1.48;;;;;;;;;;4933598;29;20030;-60
2022/06/28 03:51:14;;;;;;;2.97;1.70;;;;;;;;;;4922495;29;20036;-61
2022/06/28 03:53:41;;;;;;;8.30;2.05;;;;;;;;;;4920470;29;20034;-60
2022/06/28 03:56:08;;;;;;;3.42;1.70;;;;;;;;;;4923572;29;20135;-61
2022/06/28 03:58:34;;;;;;;5.40;2.15;;;;;;;;;;4924865;29;20024;-60
2022/06/28 04:01:01;;;;;;;3.42;2.00;;;;;;;;;;4924566;29;20453;-60
2022/06/28 04:03:27;;;;;;;5.50;1.73;;;;;;;;;;4923540;29;20024;-60
2022/06/28 04:05:53;;;;;;;3.22;1.80;;;;;;;;;;4920019;29;20035;-60
2022/06/28 04:08:20;;;;;;;7.05;1.95;;;;;;;;;;4921855;29;20056;-60
2022/06/28 04:10:46;;;;;;;7.00;1.80;;;;;;;;;;4924341;29;20046;-61
2022/06/28 04:13:12;;;;;;;6.22;2.10;;;;;;;;;;4924491;29;20028;-61
2022/06/28 04:15:39;;;;;;;3.85;1.80;;;;;;;;;;4924166;29;20028;-61
2022/06/28 04:18:06;;;;;;;2.60;1.70;;;;;;;;;;4920725;29;20043;-61
2022/06/28 04:20:33;;;;;;;8.52;1.80;;;;;;;;;;4919369;29;20038;-60
2022/06/28 04:22:59;;;;;;;8.88;2.08;;;;;;;;;;4924104;29;20482;-60
2022/06/28 04:25:26;;;;;;;3.53;1.70;;;;;;;;;;4926916;29;20034;-61
2022/06/28 04:27:56;;;;;;;3.95;2.03;;;;;;;;;;4932423;29;20020;-60
2022/06/28 04:30:25;;;;;;;6.13;1.85;;;;;;;;;;4922783;29;20034;-61
2022/06/28 04:32:51;;;;;;;3.53;1.73;;;;;;;;;;4919566;29;20038;-60
2022/06/28 04:35:18;;;;;;;3.72;1.70;;;;;;;;;;4921705;29;20412;-60
2022/06/28 04:37:44;;;;;;;2.38;1.77;;;;;;;;;;4923964;29;20040;-60
2022/06/28 04:40:11;;;;;;;3.72;1.80;;;;;;;;;;4923942;29;20028;-60
2022/06/28 04:42:37;;;;;;;4.35;1.98;;;;;;;;;;4923971;29;20054;-60
2022/06/28 04:45:03;;;;;;;5.45;1.90;;;;;;;;;;4919949;29;20020;-60
2022/06/28 04:47:30;;;;;;;2.33;1.52;;;;;;;;;;4919649;29;20145;-60
2022/06/28 04:49:56;;;;;;;4.80;1.80;;;;;;;;;;4923995;29;20121;-60
2022/06/28 04:52:22;;;;;;;9.35;2.20;;;;;;;;;;4923760;29;20028;-61
2022/06/28 04:54:48;;;;;;;9.45;2.50;;;;;;;;;;4923684;29;20030;-60
2022/06/28 04:57:15;;;;;;;3.55;1.95;;;;;;;;;;4921617;29;20024;-60
2022/06/28 04:59:41;;;;;;;3.85;1.98;;;;;;;;;;4919532;29;20058;-60
2022/06/28 05:02:07;;;;;;;5.72;1.88;;;;;;;;;;4922464;29;20032;-60
2022/06/28 05:04:34;;;;;;;4.07;2.10;;;;;;;;;;4927780;29;20038;-61
2022/06/28 05:07:00;;;;;;;5.55;1.90;;;;;;;;;;4931211;29;20757;-61
2022/06/28 05:09:26;;;;;;;3.85;1.92;;;;;;;;;;4923056;29;20038;-60
2022/06/28 05:11:53;;;;;;;6.20;2.08;;;;;;;;;;4919548;29;20031;-60
2022/06/28 05:14:19;;;;;;;6.97;1.90;;;;;;;;;;4933871;29;20015;-60
2022/06/28 05:16:45;;;;;;;4.57;1.67;;;;;;;;;;4929969;29;20082;-61
2022/06/28 05:19:12;;;;;;;2.15;1.92;;;;;;;;;;4929378;29;20031;-60
2022/06/28 05:21:38;;;;;;;7.65;2.10;;;;;;;;;;4923403;29;20030;-60
2022/06/28 05:24:05;;;;;;;4.95;1.77;;;;;;;;;;4919629;29;20028;-60
2022/06/28 05:26:31;;;;;;;6.18;2.13;;;;;;;;;;4919179;29;20024;-60
2022/06/28 05:28:57;;;;;;;4.35;2.13;;;;;;;;;;4929841;29;20559;-60
2022/06/28 05:31:24;;;;;;;3.83;1.75;;;;;;;;;;4926678;29;20051;-61
2022/06/28 05:33:50;;;;;;;3.85;1.73;;;;;;;;;;4923198;29;20524;-60
2022/06/28 05:36:16;;;;;;;5.07;2.00;;;;;;;;;;4921256;29;20082;-60
2022/06/28 05:38:43;;;;;;;5.80;1.90;;;;;;;;;;4919111;29;20032;-60
2022/06/28 05:41:09;;;;;;;7.03;2.15;;;;;;;;;;4921815;29;20036;-61
2022/06/28 05:43:36;;;;;;;9.43;2.22;;;;;;;;;;4926968;29;20040;-60
2022/06/28 05:46:02;;;;;;;7.97;1.65;;;;;;;;;;4929669;29;20022;-61
2022/06/28 05:48:29;;;;;;;5.82;1.60;;;;;;;;;;4922543;29;20027;-60
2022/06/28 05:50:55;;;;;;;3.92;1.70;;;;;;;;;;4918373;29;20035;-61
2022/06/28 05:53:21;;;;;;;10.30;2.00;;;;;;;;;;4920195;29;20490;-61
2022/06/28 05:55:48;;;;;;;12.43;2.10;;;;;;;;;;4923090;29;20035;-60
2022/06/28 05:58:14;;;;;;;9.73;1.80;;;;;;;;;;4923010;29;20516;-61
2022/06/28 06:00:40;;;;;;;3.40;1.50;;;;;;;;;;4922728;29;20023;-60
2022/06/28 06:03:07;;;;;;;3.83;1.73;;;;;;;;;;4919489;29;20408;-60
2022/06/28 06:05:34;;;;;;;6.03;1.60;;;;;;;;;;4918736;29;20035;-60
2022/06/28 06:08:00;;;;;;;3.92;1.55;;;;;;;;;;4922280;29;20020;-60
2022/06/28 06:10:26;;;;;;;4.78;1.50;;;;;;;;;;4922642;29;20087;-60
2022/06/28 06:12:53;;;;;;;4.85;1.60;;;;;;;;;;4924533;29;20040;-60
2022/06/28 06:15:20;;;;;;;4.93;1.80;;;;;;;;;;4918117;29;20050;-61
2022/06/28 06:17:47;;;;;;;6.45;1.88;;;;;;;;;;4931118;29;20505;-60
2022/06/28 06:20:13;;;;;;;8.05;1.92;;;;;;;;;;4922854;29;20036;-60
2022/06/28 06:22:40;;;;;;;4.47;1.42;;;;;;;;;;4922622;29;20441;-60
2022/06/28 06:25:06;;;;;;;8.05;1.63;;;;;;;;;;4925897;29;20024;-60
2022/06/28 06:27:32;;;;;;;2.67;1.35;;;;;;;;;;4926951;29;20024;-60
2022/06/28 06:29:59;;;;;;;6.15;1.40;;;;;;;;;;4916938;29;20032;-60
2022/06/28 06:32:25;;;;;;;3.30;1.58;;;;;;;;;;4939804;29;20043;-60
2022/06/28 06:34:51;;;;;;;3.40;1.27;;;;;;;;;;4930276;29;20078;-60
2022/06/28 06:37:18;;;;;;;6.20;1.40;;;;;;;;;;4934808;29;20024;-61
2022/06/28 06:39:44;;;;;;;3.45;1.15;;;;;;;;;;4928299;29;20035;-61
2022/06/28 06:42:10;;;;;;;5.93;1.30;;;;;;;;;;4926071;29;20035;-61
2022/06/28 06:44:37;;;;;;;3.33;1.25;;;;;;;;;;4920718;29;20034;-60
2022/06/28 06:47:04;;;;;;;3.85;1.15;;;;;;;;;;4934377;29;20024;-60
2022/06/28 06:49:30;;;;;;;4.20;1.33;;;;;;;;;;4927807;29;20036;-60
2022/06/28 06:51:56;;;;;;;5.07;1.33;;;;;;;;;;4925179;29;20720;-62
2022/06/28 06:54:23;;;;;;;4.53;1.58;;;;;;;;;;4924050;29;20028;-62
2022/06/28 06:56:49;;;;;;;5.07;1.20;;;;;;;;;;4925667;29;20042;-63
2022/06/28 06:59:16;;;;;;;6.50;1.20;;;;;;;;;;4933093;29;20032;-61
2022/06/28 07:01:42;;;;;;;2.67;1.10;;;;;;;;;;4926868;29;20025;-61
2022/06/28 07:04:09;;;;;;;8.38;1.60;;;;;;;;;;4930462;29;20036;-62
2022/06/28 07:06:36;;;;;;;5.57;1.17;;;;;;;;;;4924639;29;20051;-63
2022/06/28 07:09:02;;;;;;;5.63;1.30;;;;;;;;;;4920265;29;20493;-62
2022/06/28 07:11:29;;;;;;;5.43;1.25;;;;;;;;;;4920406;29;20032;-62
2022/06/28 07:13:55;;;;;;;4.68;1.20;;;;;;;;;;4925266;29;20044;-63
2022/06/28 07:16:22;;;;;;;8.65;1.10;;;;;;;;;;4928294;29;20069;-61
2022/06/28 07:18:48;;;;;;;4.38;1.30;;;;;;;;;;4930505;29;20412;-63
2022/06/28 07:21:14;;;;;;;3.05;1.20;;;;;;;;;;4933927;29;20045;-64
2022/06/28 07:23:41;;;;;;;2.83;1.02;;;;;;;;;;4927781;29;20040;-63
2022/06/28 07:26:08;;;;;;;4.25;0.90;;;;;;;;;;4922390;29;20028;-63
2022/06/28 07:28:34;;;;;;;5.38;1.10;;;;;;;;;;4929820;29;20820;-63
2022/06/28 07:31:01;;;;;;;5.43;1.00;;;;;;;;;;4926510;29;20032;-65
2022/06/28 07:33:27;;;;;;;2.50;0.93;;;;;;;;;;4919614;29;20038;-62
2022/06/28 07:35:53;;;;;;;1.92;0.90;;;;;;;;;;4934035;29;20078;-64
2022/06/28 07:38:20;;;;;;;2.38;1.00;;;;;;;;;;4920914;29;20032;-63
2022/06/28 07:40:46;;;;;;;1.83;0.90;;;;;;;;;;4928701;29;20028;-63
2022/06/28 07:43:12;;;;;;;2.70;1.10;;;;;;;;;;4928573;29;20024;-63
2022/06/28 07:45:40;;;;;;;3.20;1.10;;;;;;;;;;4921206;29;20556;-63
2022/06/28 07:48:07;;;;;;;4.25;1.20;;;;;;;;;;4934268;29;20026;-65
2022/06/28 07:53:18;;;;;;;3.88;1.20;;;;;;;;;;4920984;29;20028;-64
2022/06/28 07:55:45;;;;;;;3.35;0.77;;;;;;;;;;4923345;29;20039;-65
2022/06/28 07:58:11;;;;;;;10.15;1.10;;;;;;;;;;4923340;29;20016;-64
2022/06/28 08:00:37;;;;;;;2.03;1.10;;;;;;;;;;4923475;29;20039;-65
2022/06/28 08:03:05;;;;;;;2.67;1.05;;;;;;;;;;4920040;29;20042;-64
2022/06/28 08:05:31;;;;;;;3.15;1.30;;;;;;;;;;4919186;29;20032;-64
2022/06/28 08:07:57;;;;;;;2.25;1.00;;;;;;;;;;4923035;29;20036;-66
2022/06/28 08:10:24;;;;;;;2.15;1.00;;;;;;;;;;4923036;29;20032;-65
2022/06/28 08:12:50;;;;;;;2.60;1.02;;;;;;;;;;4923214;29;20519;-62
2022/06/28 08:15:16;;;;;;;2.88;1.30;;;;;;;;;;4921086;29;20098;-63
2022/06/28 08:17:43;;;;;;;11.50;1.25;;;;;;;;;;4917086;29;20052;-63
2022/06/28 08:20:09;;;;;;;4.32;1.08;;;;;;;;;;4930092;29;20112;-64
2022/06/28 08:22:36;;;;;;;3.28;1.05;;;;;;;;;;4934600;29;20023;-62
2022/06/28 08:25:02;;;;;;;4.40;0.80;;;;;;;;;;4936310;28;20102;-62
2022/06/28 08:27:29;;;;;;;4.45;1.10;;;;;;;;;;4928786;29;20440;-62
2022/06/28 08:29:55;;;;;;;3.97;1.08;;;;;;;;;;4924834;29;20056;-64
2022/06/28 08:32:23;;;;;;;3.05;1.10;;;;;;;;;;4932326;29;20032;-65
2022/06/28 08:34:50;;;;;;;6.80;1.40;;;;;;;;;;4926728;29;20412;-63
2022/06/28 08:37:16;;;;;;;2.78;1.00;;;;;;;;;;4927942;29;20505;-63
2022/06/28 08:39:43;;;;;;;3.95;1.00;;;;;;;;;;4922454;29;20024;-63
2022/06/28 08:42:10;;;;;;;5.63;1.20;;;;;;;;;;4919414;29;20551;-65
2022/06/28 08:44:37;;;;;;;6.22;1.10;;;;;;;;;;4918531;29;20034;-63
2022/06/28 08:47:04;;;;;;;4.75;1.15;;;;;;;;;;4925149;29;20376;-64
2022/06/28 08:49:33;;;;;;;2.47;1.10;;;;;;;;;;4922655;29;20047;-63
2022/06/28 08:51:59;;;;;;;2.57;1.23;;;;;;;;;;4922507;29;20485;-64
2022/06/28 08:54:26;;;;;;;3.35;1.25;;;;;;;;;;4921135;29;20330;-62
2022/06/28 08:56:53;;;;;;;1.48;1.05;;;;;;;;;;4918559;29;20032;-64
2022/06/28 08:59:22;;;;;;;3.58;1.20;;;;;;;;;;4929443;29;20042;-63
2022/06/28 09:01:49;;;;;;;2.92;1.30;;;;;;;;;;4933278;29;20019;-63
2022/06/28 09:04:16;;;;;;;2.92;1.10;;;;;;;;;;4934044;28;20050;-63
2022/06/28 09:06:48;;;;;;;4.10;1.15;;;;;;;;;;4927324;29;20046;-63
2022/06/28 09:09:14;;;;;;;5.88;1.33;;;;;;;;;;4932052;29;20032;-64
2022/06/28 09:11:42;;;;;;;5.82;1.10;;;;;;;;;;4917778;29;20036;-66
2022/06/28 09:14:25;;;;;;;1.58;1.10;;;;;;;;;;4920716;28;20387;-70
2022/06/28 09:16:52;;;;;;;3.13;1.40;;;;;;;;;;4925685;29;20538;-67
2022/06/28 09:19:31;;;;;;;2.92;1.13;;;;;;;;;;4928761;29;20045;-65
2022/06/28 09:21:58;;;;;;;8.38;1.30;;;;;;;;;;4929457;29;20028;-64
2022/06/28 09:24:25;;;;;;;6.82;1.30;;;;;;;;;;4923484;29;20023;-63
2022/06/28 09:26:55;;;;;;;5.35;1.35;;;;;;;;;;4924173;29;20520;-65
2022/06/28 09:29:21;;;;;;;5.45;1.50;;;;;;;;;;4932725;29;20488;-64
2022/06/28 09:31:47;;;;;;;2.83;1.38;;;;;;;;;;4924236;29;20523;-64
2022/06/28 09:34:14;;;;;;;2.75;1.58;;;;;;;;;;4926797;29;20036;-61
2022/06/28 09:36:41;;;;;;;2.17;1.75;;;;;;;;;;4918601;29;20024;-62
2022/06/28 09:39:15;;;;;;;5.10;1.40;;;;;;;;;;4932648;29;20034;-63
2022/06/28 09:41:46;;;;;;;3.90;1.45;;;;;;;;;;4917233;29;20501;-60
2022/06/28 09:44:12;;;;;;;5.55;1.55;;;;;;;;;;4921836;29;20050;-60
2022/06/28 09:46:39;;;;;;;3.08;1.20;;;;;;;;;;4924309;29;20035;-60
2022/06/28 09:49:07;;;;;;;2.63;1.27;;;;;;;;;;4922027;29;20044;-63
2022/06/28 09:51:34;;;;;;;2.58;1.33;;;;;;;;;;4921656;29;20020;-60
2022/06/28 09:54:08;;;;;;;2.15;1.30;;;;;;;;;;4930384;29;20509;-60
2022/06/28 09:56:35;;;;;;;2.45;1.40;;;;;;;;;;4946796;29;20427;-60
2022/06/28 09:59:02;;;;;;;3.05;1.40;;;;;;;;;;4929418;29;20038;-62
2022/06/28 10:01:29;;;;;;;2.83;1.23;;;;;;;;;;4924760;29;20043;-62
2022/06/28 10:03:55;;;;;;;3.00;1.50;;;;;;;;;;4926319;29;20032;-60
2022/06/28 10:06:22;;;;;;;2.90;1.30;;;;;;;;;;4931923;29;20493;-61
2022/06/28 10:08:48;;;;;;;4.60;1.67;;;;;;;;;;4927679;29;20025;-60
2022/06/28 10:11:15;;;;;;;5.85;1.67;;;;;;;;;;4934696;29;20045;-61
2022/06/28 10:16:38;;;;;;;5.20;1.58;;;;;;;;;;4926676;29;20063;-61
2022/06/28 10:19:06;;;;;;;3.90;1.58;;;;;;;;;;4933022;29;20032;-61
2022/06/28 10:21:42;;;;;;;6.40;1.40;;;;;;;;;;4932564;29;20035;-61
2022/06/28 10:24:09;;;;;;;3.42;1.08;;;;;;;;;;4922321;29;20031;-61
2022/06/28 10:26:35;;;;;;;5.88;1.70;;;;;;;;;;4934185;29;20496;-61
2022/06/28 10:29:06;;;;;;;4.80;1.60;;;;;;;;;;4919061;29;20040;-61
2022/06/28 10:31:34;;;;;;;4.40;1.42;;;;;;;;;;4929368;29;20043;-61
2022/06/28 10:34:05;;;;;;;4.27;1.30;;;;;;;;;;4932122;29;20034;-60
2022/06/28 10:36:40;;;;;;;3.88;1.30;;;;;;;;;;4924469;29;20023;-61
2022/06/28 10:39:07;;;;;;;2.85;1.45;;;;;;;;;;4932878;29;20451;-61
2022/06/28 10:41:37;;;;;;;2.33;1.48;;;;;;;;;;4932739;29;20023;-61
2022/06/28 10:44:07;;;;;;;2.17;1.30;;;;;;;;;;4924161;29;20032;-61
2022/06/28 10:46:34;;;;;;;3.90;1.67;;;;;;;;;;4924829;29;20107;-61
2022/06/28 10:49:03;;;;;;;2.47;1.52;;;;;;;;;;4924694;29;20024;-61
2022/06/28 10:51:29;;;;;;;;;;;;;;;;;;4924010;29;20034;-61
2022/06/28 10:54:01;;;;;;;2.20;1.45;;;;;;;;;;4920305;29;19925;-60
2022/06/28 10:56:31;;;;;;;2.35;1.35;;;;;;;;;;4936264;29;20024;-60
2022/06/28 10:59:05;;;;;;;1.65;1.30;;;;;;;;;;4932248;29;20032;-61
2022/06/28 11:01:44;;;;;;;4.53;1.27;;;;;;;;;;4927653;29;20032;-64
2022/06/28 11:04:11;;;;;;;2.93;1.37;;;;;;;;;;4924257;29;20028;-62
2022/06/28 11:06:41;;;;;;;2.25;1.17;;;;;;;;;;4924922;29;20355;-62
2022/06/28 11:09:21;;;;;;;4.13;1.50;;;;;;;;;;4920982;29;20038;-61
2022/06/28 11:12:26;;;;;;;2.28;1.23;;;;;;;;;;4919808;29;20506;-62
2022/06/28 11:14:54;;;;;;;2.05;1.08;;;;;;;;;;4949540;29;20032;-62
2022/06/28 11:17:26;;;;;;;1.63;1.10;;;;;;;;;;4952325;29;20055;-64
2022/06/28 11:19:53;;;;;;;2.38;1.30;;;;;;;;;;4949864;29;20039;-63
2022/06/28 11:22:26;;;;;;;3.97;1.52;;;;;;;;;;4950542;29;20038;-63
2022/06/28 11:24:54;;;;;;;4.85;1.10;;;;;;;;;;4950201;29;20035;-61
2022/06/28 11:27:21;;;;;;;3.05;1.30;;;;;;;;;;4950336;29;20512;-63
2022/06/28 11:30:02;;;;;;;2.20;1.00;;;;;;;;;;4949676;28;20038;-63
2022/06/28 11:32:30;;;;;;;5.97;1.30;;;;;;;;;;4949234;29;20055;-65
2022/06/28 11:34:58;;;;;;;5.30;1.10;;;;;;;;;;4949059;28;20057;-65
2022/06/28 11:37:25;;;;;;;6.60;1.27;;;;;;;;;;4947194;29;20085;-64
2022/06/28 11:39:53;;;;;;;5.40;1.52;;;;;;;;;;4951008;29;20036;-63
2022/06/28 11:42:19;;;;;;;5.13;1.67;;;;;;;;;;4951395;29;20035;-62
2022/06/28 11:44:47;;;;;;;5.85;1.55;;;;;;;;;;4949917;28;20043;-64
2022/06/28 11:47:16;;;;;;;6.15;1.40;;;;;;;;;;4921380;29;20449;-62
2022/06/28 11:49:42;;;;;;;;;;;;;;;;;;4923711;29;20036;-61
2022/06/28 11:52:13;;;;;;;6.50;1.40;;;;;;;;;;4924038;29;19984;-60
2022/06/28 11:54:39;;;;;;;3.90;1.40;;;;;;;;;;4923462;29;20042;-64
2022/06/28 11:57:16;;;;;;;7.45;1.50;;;;;;;;;;4933902;29;20031;-64
2022/06/28 11:59:52;;;;;;;6.75;1.50;;;;;;;;;;4934807;29;20091;-64
2022/06/28 12:02:37;;;;;;;3.78;1.30;;;;;;;;;;4919787;29;20020;-63
2022/06/28 12:05:04;;;;;;;2.75;1.38;;;;;;;;;;4925325;29;20034;-63
2022/06/28 12:07:34;;;;;;;2.58;1.30;;;;;;;;;;4931094;29;20397;-63
2022/06/28 12:10:00;;;;;;;2.55;1.33;;;;;;;;;;4937475;29;20575;-63
2022/06/28 12:12:26;;;;;;;5.07;1.58;;;;;;;;;;4923394;29;20083;-64
2022/06/28 12:14:57;;;;;;;11.70;1.48;;;;;;;;;;4932825;29;20036;-64
2022/06/28 12:17:24;;;;;;;6.38;1.80;;;;;;;;;;4919139;29;20888;-63
2022/06/28 12:19:51;;;;;;;3.47;1.35;;;;;;;;;;4923014;29;20020;-64
2022/06/28 12:22:23;;;;;;;5.85;1.25;;;;;;;;;;4922992;29;20032;-63
2022/06/28 12:24:51;;;;;;;4.38;1.35;;;;;;;;;;4922773;29;20028;-63
2022/06/28 12:27:19;;;;;;;2.28;1.30;;;;;;;;;;4920237;29;20051;-63
2022/06/28 12:29:46;;;;;;;1.83;1.15;;;;;;;;;;4927043;29;20086;-62
2022/06/28 12:32:12;;;;;;;5.90;1.17;;;;;;;;;;4921102;29;20040;-63
2022/06/28 12:34:40;;;;;;;4.90;1.20;;;;;;;;;;4922562;29;20409;-63
2022/06/28 12:37:09;;;;;;;5.88;1.30;;;;;;;;;;4922236;29;20020;-61
2022/06/28 12:39:35;;;;;;;2.42;1.15;;;;;;;;;;4924444;29;20390;-61
2022/06/28 12:42:02;;;;;;;4.95;1.40;;;;;;;;;;4917662;29;20043;-63
2022/06/28 12:44:28;;;;;;;2.53;1.15;;;;;;;;;;4918602;29;20396;-63
2022/06/28 12:46:55;;;;;;;7.28;1.30;;;;;;;;;;4922280;29;20028;-62
2022/06/28 12:49:22;;;;;;;4.30;1.00;;;;;;;;;;4923994;29;20036;-64
2022/06/28 12:51:48;;;;;;;4.82;1.50;;;;;;;;;;4930586;29;20043;-62
2022/06/28 12:54:15;;;;;;;4.68;1.15;;;;;;;;;;4921151;29;20038;-61
2022/06/28 12:56:41;;;;;;;3.63;1.23;;;;;;;;;;4929370;29;20027;-61
2022/06/28 12:59:08;;;;;;;4.95;1.20;;;;;;;;;;4919075;29;20784;-63
2022/06/28 13:01:34;;;;;;;3.30;1.15;;;;;;;;;;4915583;29;20042;-63
2022/06/28 13:04:01;;;;;;;5.30;1.20;;;;;;;;;;4930619;29;20032;-63
2022/06/28 13:06:27;;;;;;;8.32;1.02;;;;;;;;;;4922735;29;20027;-63
2022/06/28 13:08:53;;;;;;;2.13;1.13;;;;;;;;;;4930405;29;20040;-62
2022/06/28 13:11:22;;;;;;;4.28;1.02;;;;;;;;;;4925392;29;20044;-63
2022/06/28 13:13:49;;;;;;;7.30;1.23;;;;;;;;;;4922326;29;20028;-63
2022/06/28 13:16:15;;;;;;;3.50;1.10;;;;;;;;;;4921991;29;20063;-62
2022/06/28 13:18:42;;;;;;;2.85;1.10;;;;;;;;;;4920756;29;20016;-63
2022/06/28 13:21:09;;;;;;;2.22;1.23;;;;;;;;;;4920517;29;20015;-63
2022/06/28 13:23:35;;;;;;;4.13;1.00;;;;;;;;;;4917243;29;20044;-63
2022/06/28 13:26:02;;;;;;;1.95;1.10;;;;;;;;;;4921625;29;20016;-63
2022/06/28 13:28:28;;;;;;;3.17;1.10;;;;;;;;;;4927871;29;20035;-62
2022/06/28 13:30:54;;;;;;;7.95;1.13;;;;;;;;;;4919451;29;20038;-63
2022/06/28 13:33:21;;;;;;;9.73;1.20;;;;;;;;;;4931575;29;20042;-63
2022/06/28 13:35:48;;;;;;;4.50;1.00;;;;;;;;;;4943568;29;20034;-63
2022/06/28 13:38:14;;;;;;;2.80;1.30;;;;;;;;;;4926737;29;20035;-63
2022/06/28 13:40:43;;;;;;;3.33;0.90;;;;;;;;;;4927829;29;20034;-62
2022/06/28 13:45:55;;;;;;;2.25;0.80;;;;;;;;;;4923331;29;20036;-62
2022/06/28 13:48:21;;;;;;;2.25;0.98;;;;;;;;;;4922180;29;20036;-62
2022/06/28 13:50:48;;;;;;;2.55;0.93;;;;;;;;;;4927656;29;20394;-62
2022/06/28 13:53:16;;;;;;;6.00;1.00;;;;;;;;;;4924992;29;20044;-63
2022/06/28 13:55:43;;;;;;;3.78;1.10;;;;;;;;;;4927557;29;20036;-62
2022/06/28 13:58:12;;;;;;;6.65;1.17;;;;;;;;;;4929325;29;20027;-62
2022/06/28 14:00:39;;;;;;;7.82;1.27;;;;;;;;;;4924951;29;20035;-62
2022/06/28 14:03:05;;;;;;;3.60;0.85;;;;;;;;;;4921278;29;20028;-61
2022/06/28 14:05:31;;;;;;;3.33;0.93;;;;;;;;;;4922484;29;20031;-62
2022/06/28 14:07:58;;;;;;;3.50;1.00;;;;;;;;;;4935783;29;20034;-61
2022/06/28 14:10:24;;;;;;;3.50;1.40;;;;;;;;;;4929812;29;20056;-62
2022/06/28 14:12:50;;;;;;;4.18;0.98;;;;;;;;;;4924659;29;20503;-62
2022/06/28 14:15:17;;;;;;;6.35;1.05;;;;;;;;;;4922365;29;20038;-62
2022/06/28 14:17:43;;;;;;;1.80;1.00;;;;;;;;;;4930650;29;20050;-62
2022/06/28 14:20:10;;;;;;;8.55;1.30;;;;;;;;;;4932690;29;20046;-62
2022/06/28 14:22:37;;;;;;;10.15;0.98;;;;;;;;;;4926906;29;20056;-62
2022/06/28 14:25:04;;;;;;;7.32;1.15;;;;;;;;;;4925030;29;20028;-62
2022/06/28 14:27:30;;;;;;;3.78;0.90;;;;;;;;;;4922749;29;20030;-62
2022/06/28 14:29:56;;;;;;;7.25;1.10;;;;;;;;;;4921957;29;20411;-62
2022/06/28 14:32:23;;;;;;;4.53;1.10;;;;;;;;;;4929549;29;20493;-62
2022/06/28 14:34:49;;;;;;;5.82;1.20;;;;;;;;;;4923761;29;20568;-62
2022/06/28 14:37:15;;;;;;;2.80;1.10;;;;;;;;;;4931879;29;20081;-62
2022/06/28 14:39:42;;;;;;;3.00;1.20;;;;;;;;;;4939721;28;20122;-62
2022/06/28 14:42:08;;;;;;;4.22;1.10;;;;;;;;;;4919103;29;20061;-62
2022/06/28 14:44:34;;;;;;;5.15;1.10;;;;;;;;;;4923387;29;20034;-62
2022/06/28 14:47:01;;;;;;;7.20;1.23;;;;;;;;;;4924326;29;20028;-62
2022/06/28 14:49:27;;;;;;;6.55;1.00;;;;;;;;;;4924253;29;20042;-62
2022/06/28 14:51:53;;;;;;;3.60;1.02;;;;;;;;;;4929999;29;20040;-62
2022/06/28 14:54:20;;;;;;;2.38;1.20;;;;;;;;;;4925223;29;20051;-62
2022/06/28 14:56:46;;;;;;;5.00;1.20;;;;;;;;;;4933266;29;20028;-62
2022/06/28 14:59:12;;;;;;;2.90;1.10;;;;;;;;;;4931216;29;20034;-62